sensor_id;sensor_type;location;lat;lon;timestamp;pressure;altitude;pressure_sealevel;temperature;humidity
64876;BME280;51369;49.862;9.908;2023-04-03T00:02:14;99280.06;;;3.50;70.54
64876;BME280;51369;49.862;9.908;2023-04-03T00:04:39;99283.63;;;3.50;70.53
64876;BME280;51369;49.862;9.908;2023-04-03T00:07:05;99280.97;;;3.50;69.96
64876;BME280;51369;49.862;9.908;2023-04-03T00:09:30;99280.94;;;3.52;71.07
64876;BME280;51369;49.862;9.908;2023-04-03T00:11:56;99282.72;;;3.54;70.69
64876;BME280;51369;49.862;9.908;2023-04-03T00:14:21;99277.41;;;3.56;70.71
64876;BME280;51369;49.862;9.908;2023-04-03T00:16:47;99286.28;;;3.58;72.03
64876;BME280;51369;49.862;9.908;2023-04-03T00:19:12;99284.50;;;3.60;71.69
64876;BME280;51369;49.862;9.908;2023-04-03T00:21:38;99282.72;;;3.62;71.63
64876;BME280;51369;49.862;9.908;2023-04-03T00:24:04;99276.50;;;3.63;71.71
64876;BME280;51369;49.862;9.908;2023-04-03T00:26:30;99282.72;;;3.65;70.60
64876;BME280;51369;49.862;9.908;2023-04-03T00:28:55;99283.63;;;3.67;71.22
64876;BME280;51369;49.862;9.908;2023-04-03T00:31:21;99283.63;;;3.69;70.59
64876;BME280;51369;49.862;9.908;2023-04-03T00:33:47;99279.16;;;3.71;71.07
64876;BME280;51369;49.862;9.908;2023-04-03T00:36:12;99274.72;;;3.74;70.92
64876;BME280;51369;49.862;9.908;2023-04-03T00:38:38;99275.59;;;3.76;71.18
64876;BME280;51369;49.862;9.908;2023-04-03T00:41:03;99275.59;;;3.78;70.58
64876;BME280;51369;49.862;9.908;2023-04-03T00:43:30;99275.59;;;3.79;70.57
64876;BME280;51369;49.862;9.908;2023-04-03T00:45:57;99284.50;;;3.81;71.34
64876;BME280;51369;49.862;9.908;2023-04-03T00:48:30;99278.25;;;3.82;71.05
64876;BME280;51369;49.862;9.908;2023-04-03T00:50:57;99275.59;;;3.85;71.41
64876;BME280;51369;49.862;9.908;2023-04-03T00:53:27;99275.59;;;3.85;71.51
64876;BME280;51369;49.862;9.908;2023-04-03T00:55:55;99269.34;;;3.89;71.42
64876;BME280;51369;49.862;9.908;2023-04-03T00:58:28;99268.44;;;3.92;71.88
64876;BME280;51369;49.862;9.908;2023-04-03T01:00:58;99263.09;;;3.95;72.40
64876;BME280;51369;49.862;9.908;2023-04-03T01:03:23;99270.22;;;3.99;72.02
64876;BME280;51369;49.862;9.908;2023-04-03T01:05:50;99278.22;;;4.01;72.36
64876;BME280;51369;49.862;9.908;2023-04-03T01:08:16;99274.66;;;4.03;72.24
64876;BME280;51369;49.862;9.908;2023-04-03T01:10:41;99271.97;;;4.06;71.31
64876;BME280;51369;49.862;9.908;2023-04-03T01:13:39;99277.31;;;4.08;70.88
64876;BME280;51369;49.862;9.908;2023-04-03T01:16:07;99279.97;;;4.12;71.38
64876;BME280;51369;49.862;9.908;2023-04-03T01:18:33;99279.97;;;4.14;71.86
64876;BME280;51369;49.862;9.908;2023-04-03T01:26:43;99277.28;;;4.21;71.92
64876;BME280;51369;49.862;9.908;2023-04-03T01:29:09;99277.28;;;4.23;72.35
64876;BME280;51369;49.862;9.908;2023-04-03T01:34:00;99272.81;;;4.25;72.70
64876;BME280;51369;49.862;9.908;2023-04-03T01:36:28;99284.41;;;4.25;71.82
64876;BME280;51369;49.862;9.908;2023-04-03T01:38:55;99280.84;;;4.27;72.87
64876;BME280;51369;49.862;9.908;2023-04-03T01:41:22;99279.06;;;4.29;72.79
64876;BME280;51369;49.862;9.908;2023-04-03T01:43:49;99284.38;;;4.30;71.16
64876;BME280;51369;49.862;9.908;2023-04-03T01:46:18;99277.25;;;4.32;71.10
64876;BME280;51369;49.862;9.908;2023-04-03T01:48:46;99275.47;;;4.36;70.04
64876;BME280;51369;49.862;9.908;2023-04-03T01:51:12;99281.69;;;4.38;70.69
64876;BME280;51369;49.862;9.908;2023-04-03T01:53:37;99286.13;;;4.40;71.99
64876;BME280;51369;49.862;9.908;2023-04-03T01:56:03;99278.13;;;4.42;72.12
64876;BME280;51369;49.862;9.908;2023-04-03T01:58:30;99291.47;;;4.43;72.43
64876;BME280;51369;49.862;9.908;2023-04-03T02:00:56;99283.47;;;4.40;71.04
64876;BME280;51369;49.862;9.908;2023-04-03T02:03:22;99285.25;;;4.41;71.32
64876;BME280;51369;49.862;9.908;2023-04-03T02:05:47;99285.25;;;4.41;71.71
64876;BME280;51369;49.862;9.908;2023-04-03T02:08:13;99285.25;;;4.41;71.76
64876;BME280;51369;49.862;9.908;2023-04-03T02:10:39;99282.56;;;4.41;70.97
64876;BME280;51369;49.862;9.908;2023-04-03T02:13:05;99281.69;;;4.42;71.51
64876;BME280;51369;49.862;9.908;2023-04-03T02:15:31;99280.78;;;4.45;72.07
64876;BME280;51369;49.862;9.908;2023-04-03T02:17:56;99283.44;;;4.45;72.42
64876;BME280;51369;49.862;9.908;2023-04-03T02:20:22;99278.97;;;4.47;72.81
64876;BME280;51369;49.862;9.908;2023-04-03T02:22:48;99289.69;;;4.47;72.54
64876;BME280;51369;49.862;9.908;2023-04-03T02:25:14;99277.19;;;4.47;73.04
64876;BME280;51369;49.862;9.908;2023-04-03T02:27:39;99287.00;;;4.47;73.40
64876;BME280;51369;49.862;9.908;2023-04-03T02:30:05;99290.56;;;4.47;73.53
64876;BME280;51369;49.862;9.908;2023-04-03T02:32:31;99286.13;;;4.48;72.71
64876;BME280;51369;49.862;9.908;2023-04-03T02:34:57;99280.75;;;4.48;71.60
64876;BME280;51369;49.862;9.908;2023-04-03T02:37:22;99281.66;;;4.48;71.90
64876;BME280;51369;49.862;9.908;2023-04-03T02:39:49;99283.44;;;4.49;72.54
64876;BME280;51369;49.862;9.908;2023-04-03T02:42:15;99286.09;;;4.49;71.69
64876;BME280;51369;49.862;9.908;2023-04-03T02:44:41;99281.66;;;4.51;72.37
64876;BME280;51369;49.862;9.908;2023-04-03T02:47:08;99295.00;;;4.53;72.60
64876;BME280;51369;49.862;9.908;2023-04-03T02:49:33;99295.91;;;4.53;73.02
64876;BME280;51369;49.862;9.908;2023-04-03T02:51:59;99281.63;;;4.54;73.25
64876;BME280;51369;49.862;9.908;2023-04-03T02:54:24;99286.97;;;4.56;73.04
64876;BME280;51369;49.862;9.908;2023-04-03T02:56:54;99297.66;;;4.56;72.72
64876;BME280;51369;49.862;9.908;2023-04-03T02:59:19;99282.50;;;4.56;72.47
64876;BME280;51369;49.862;9.908;2023-04-03T03:01:45;99286.97;;;4.57;72.60
64876;BME280;51369;49.862;9.908;2023-04-03T03:04:11;99285.19;;;4.60;72.86
64876;BME280;51369;49.862;9.908;2023-04-03T03:06:36;99287.84;;;4.63;72.78
64876;BME280;51369;49.862;9.908;2023-04-03T03:09:02;99289.63;;;4.64;72.81
64876;BME280;51369;49.862;9.908;2023-04-03T03:11:29;99281.59;;;4.65;72.57
64876;BME280;51369;49.862;9.908;2023-04-03T03:13:55;99286.94;;;4.67;72.05
64876;BME280;51369;49.862;9.908;2023-04-03T03:16:20;99292.25;;;4.68;71.86
64876;BME280;51369;49.862;9.908;2023-04-03T03:18:46;99279.78;;;4.69;72.01
64876;BME280;51369;49.862;9.908;2023-04-03T03:21:12;99288.69;;;4.71;72.63
64876;BME280;51369;49.862;9.908;2023-04-03T03:23:37;99282.44;;;4.70;72.59
64876;BME280;51369;49.862;9.908;2023-04-03T03:26:05;99280.66;;;4.72;72.79
64876;BME280;51369;49.862;9.908;2023-04-03T03:28:34;99290.44;;;4.75;71.85
64876;BME280;51369;49.862;9.908;2023-04-03T03:31:00;99290.44;;;4.76;71.73
64876;BME280;51369;49.862;9.908;2023-04-03T03:33:25;99292.22;;;4.76;71.33
64876;BME280;51369;49.862;9.908;2023-04-03T03:35:52;99290.44;;;4.78;71.38
64876;BME280;51369;49.862;9.908;2023-04-03T03:38:18;99285.97;;;4.78;70.42
64876;BME280;51369;49.862;9.908;2023-04-03T03:40:44;99281.50;;;4.79;69.90
64876;BME280;51369;49.862;9.908;2023-04-03T03:43:10;99285.97;;;4.81;70.21
64876;BME280;51369;49.862;9.908;2023-04-03T03:45:35;99284.19;;;4.82;69.92
64876;BME280;51369;49.862;9.908;2023-04-03T03:48:02;99278.81;;;4.82;70.00
64876;BME280;51369;49.862;9.908;2023-04-03T03:50:27;99282.38;;;4.82;69.48
64876;BME280;51369;49.862;9.908;2023-04-03T03:52:53;99283.28;;;4.83;69.99
64876;BME280;51369;49.862;9.908;2023-04-03T03:55:18;99283.28;;;4.83;69.55
64876;BME280;51369;49.862;9.908;2023-04-03T03:57:49;99280.59;;;4.81;70.23
64876;BME280;51369;49.862;9.908;2023-04-03T04:00:15;99286.84;;;4.82;69.84
64876;BME280;51369;49.862;9.908;2023-04-03T04:02:41;99288.66;;;4.77;68.81
64876;BME280;51369;49.862;9.908;2023-04-03T04:05:09;99283.31;;;4.74;69.60
64876;BME280;51369;49.862;9.908;2023-04-03T04:07:35;99283.34;;;4.71;69.89
64876;BME280;51369;49.862;9.908;2023-04-03T04:10:02;99280.69;;;4.68;68.96
64876;BME280;51369;49.862;9.908;2023-04-03T04:12:29;99286.06;;;4.62;70.14
64876;BME280;51369;49.862;9.908;2023-04-03T04:14:54;99286.97;;;4.57;68.42
64876;BME280;51369;49.862;9.908;2023-04-03T04:17:20;99286.09;;;4.52;69.24
64876;BME280;51369;49.862;9.908;2023-04-03T04:19:46;99288.78;;;4.46;69.41
64876;BME280;51369;49.862;9.908;2023-04-03T04:22:11;99291.47;;;4.42;69.67
64876;BME280;51369;49.862;9.908;2023-04-03T04:24:37;99289.72;;;4.38;69.78
64876;BME280;51369;49.862;9.908;2023-04-03T04:27:03;99291.50;;;4.33;69.24
64876;BME280;51369;49.862;9.908;2023-04-03T04:29:30;99289.75;;;4.30;69.07
64876;BME280;51369;49.862;9.908;2023-04-03T04:32:00;99283.50;;;4.27;69.51
64876;BME280;51369;49.862;9.908;2023-04-03T04:34:27;99290.66;;;4.23;69.20
64876;BME280;51369;49.862;9.908;2023-04-03T04:36:52;99296.00;;;4.20;69.21
64876;BME280;51369;49.862;9.908;2023-04-03T04:39:18;99290.66;;;4.17;69.87
64876;BME280;51369;49.862;9.908;2023-04-03T04:41:44;99296.03;;;4.14;69.18
64876;BME280;51369;49.862;9.908;2023-04-03T04:44:09;99298.69;;;4.11;68.97
64876;BME280;51369;49.862;9.908;2023-04-03T04:46:35;99296.03;;;4.08;68.68
64876;BME280;51369;49.862;9.908;2023-04-03T04:49:01;99298.72;;;4.03;69.67
64876;BME280;51369;49.862;9.908;2023-04-03T04:51:29;99304.94;;;4.01;68.94
64876;BME280;51369;49.862;9.908;2023-04-03T04:53:54;99305.84;;;3.97;69.91
64876;BME280;51369;49.862;9.908;2023-04-03T04:56:20;99316.53;;;3.93;69.13
64876;BME280;51369;49.862;9.908;2023-04-03T04:58:46;99319.22;;;3.87;68.74
64876;BME280;51369;49.862;9.908;2023-04-03T05:01:12;99316.56;;;3.83;68.82
64876;BME280;51369;49.862;9.908;2023-04-03T05:03:47;99311.22;;;3.77;68.63
64876;BME280;51369;49.862;9.908;2023-04-03T05:06:13;99308.53;;;3.72;69.55
64876;BME280;51369;49.862;9.908;2023-04-03T05:08:39;99316.56;;;3.68;69.83
64876;BME280;51369;49.862;9.908;2023-04-03T05:11:05;99321.91;;;3.63;70.26
64876;BME280;51369;49.862;9.908;2023-04-03T05:13:31;99322.78;;;3.59;69.55
64876;BME280;51369;49.862;9.908;2023-04-03T05:15:56;99326.34;;;3.55;69.96
64876;BME280;51369;49.862;9.908;2023-04-03T05:18:22;99335.25;;;3.51;70.07
64876;BME280;51369;49.862;9.908;2023-04-03T05:20:49;99322.78;;;3.47;70.68
64876;BME280;51369;49.862;9.908;2023-04-03T05:23:17;99329.94;;;3.42;70.32
64876;BME280;51369;49.862;9.908;2023-04-03T05:25:44;99335.25;;;3.37;69.65
64876;BME280;51369;49.862;9.908;2023-04-03T05:28:11;99344.16;;;3.33;69.99
64876;BME280;51369;49.862;9.908;2023-04-03T05:30:37;99341.47;;;3.29;70.12
64876;BME280;51369;49.862;9.908;2023-04-03T05:33:03;99337.91;;;3.25;70.08
64876;BME280;51369;49.862;9.908;2023-04-03T05:35:41;99345.91;;;3.22;69.78
64876;BME280;51369;49.862;9.908;2023-04-03T05:38:11;99349.47;;;3.19;70.88
64876;BME280;51369;49.862;9.908;2023-04-03T05:40:37;99346.78;;;3.16;70.14
64876;BME280;51369;49.862;9.908;2023-04-03T05:43:02;99348.56;;;3.14;71.16
64876;BME280;51369;49.862;9.908;2023-04-03T05:45:32;99349.44;;;3.10;69.92
64876;BME280;51369;49.862;9.908;2023-04-03T05:47:58;99357.44;;;3.10;70.31
64876;BME280;51369;49.862;9.908;2023-04-03T05:50:25;99358.34;;;3.09;70.65
64876;BME280;51369;49.862;9.908;2023-04-03T05:52:55;99361.88;;;3.05;69.89
64876;BME280;51369;49.862;9.908;2023-04-03T05:55:22;99361.00;;;3.06;70.51
64876;BME280;51369;49.862;9.908;2023-04-03T05:57:48;99365.44;;;3.10;70.31
64876;BME280;51369;49.862;9.908;2023-04-03T06:00:14;99374.38;;;3.17;70.35
64876;BME280;51369;49.862;9.908;2023-04-03T06:02:52;99363.72;;;3.32;70.19
64876;BME280;51369;49.862;9.908;2023-04-03T06:05:21;99364.63;;;3.52;71.25
64876;BME280;51369;49.862;9.908;2023-04-03T06:07:47;99360.19;;;3.74;70.49
64876;BME280;51369;49.862;9.908;2023-04-03T06:10:15;99355.72;;;3.95;70.36
64876;BME280;51369;49.862;9.908;2023-04-03T06:12:40;99357.50;;;4.12;70.48
64876;BME280;51369;49.862;9.908;2023-04-03T06:15:07;99360.13;;;4.29;69.67
64876;BME280;51369;49.862;9.908;2023-04-03T06:17:36;99359.22;;;4.44;69.36
64876;BME280;51369;49.862;9.908;2023-04-03T06:20:01;99353.81;;;4.59;69.19
64876;BME280;51369;49.862;9.908;2023-04-03T06:22:27;99350.22;;;4.74;69.24
64876;BME280;51369;49.862;9.908;2023-04-03T06:24:55;99356.38;;;4.89;68.93
64876;BME280;51369;49.862;9.908;2023-04-03T06:27:21;99358.97;;;5.06;68.83
64876;BME280;51369;49.862;9.908;2023-04-03T06:29:47;99360.66;;;5.21;67.96
64876;BME280;51369;49.862;9.908;2023-04-03T06:32:14;99355.22;;;5.36;67.00
64876;BME280;51369;49.862;9.908;2023-04-03T06:34:39;99363.13;;;5.53;67.13
64876;BME280;51369;49.862;9.908;2023-04-03T06:37:05;99367.47;;;5.69;67.52
64876;BME280;51369;49.862;9.908;2023-04-03T06:39:31;99370.97;;;5.82;67.03
64876;BME280;51369;49.862;9.908;2023-04-03T06:41:56;99376.28;;;5.91;66.08
64876;BME280;51369;49.862;9.908;2023-04-03T06:44:29;99376.19;;;6.03;65.92
64876;BME280;51369;49.862;9.908;2023-04-03T06:46:55;99376.94;;;6.17;66.06
64876;BME280;51369;49.862;9.908;2023-04-03T06:49:20;99383.19;;;6.21;64.91
64876;BME280;51369;49.862;9.908;2023-04-03T06:51:46;99378.69;;;6.22;64.29
64876;BME280;51369;49.862;9.908;2023-04-03T06:54:12;99377.78;;;6.24;64.35
64876;BME280;51369;49.862;9.908;2023-04-03T06:56:37;99378.63;;;6.29;64.51
64876;BME280;51369;49.862;9.908;2023-04-03T06:59:02;99389.31;;;6.35;63.84
64876;BME280;51369;49.862;9.908;2023-04-03T07:01:29;99384.75;;;6.43;64.01
64876;BME280;51369;49.862;9.908;2023-04-03T07:03:55;99392.75;;;6.49;63.26
64876;BME280;51369;49.862;9.908;2023-04-03T07:06:21;99396.22;;;6.59;65.05
64876;BME280;51369;49.862;9.908;2023-04-03T07:08:48;99394.38;;;6.63;64.50
64876;BME280;51369;49.862;9.908;2023-04-03T07:11:14;99395.28;;;6.63;63.39
64876;BME280;51369;49.862;9.908;2023-04-03T07:13:40;99399.69;;;6.69;62.40
64876;BME280;51369;49.862;9.908;2023-04-03T07:16:06;99399.69;;;6.69;63.02
64876;BME280;51369;49.862;9.908;2023-04-03T07:18:32;99408.69;;;6.63;62.67
64876;BME280;51369;49.862;9.908;2023-04-03T07:20:58;99401.56;;;6.61;62.13
64876;BME280;51369;49.862;9.908;2023-04-03T07:23:24;99401.56;;;6.61;62.68
64876;BME280;51369;49.862;9.908;2023-04-03T07:25:50;99404.28;;;6.58;62.67
64876;BME280;51369;49.862;9.908;2023-04-03T07:28:17;99408.78;;;6.56;62.77
64876;BME280;51369;49.862;9.908;2023-04-03T07:30:51;99408.81;;;6.52;62.98
64876;BME280;51369;49.862;9.908;2023-04-03T07:33:18;99411.50;;;6.49;63.40
64876;BME280;51369;49.862;9.908;2023-04-03T07:35:44;99423.25;;;6.39;62.49
64876;BME280;51369;49.862;9.908;2023-04-03T07:38:10;99417.06;;;6.31;62.26
64876;BME280;51369;49.862;9.908;2023-04-03T07:40:36;99417.97;;;6.27;63.08
64876;BME280;51369;49.862;9.908;2023-04-03T07:43:02;99410.91;;;6.20;62.86
64876;BME280;51369;49.862;9.908;2023-04-03T07:45:28;99418.06;;;6.18;62.86
64876;BME280;51369;49.862;9.908;2023-04-03T07:47:53;99417.19;;;6.14;61.90
64876;BME280;51369;49.862;9.908;2023-04-03T07:50:19;99421.66;;;6.14;63.07
64876;BME280;51369;49.862;9.908;2023-04-03T07:52:45;99425.28;;;6.10;62.70
64876;BME280;51369;49.862;9.908;2023-04-03T07:55:11;99422.66;;;6.04;62.74
64876;BME280;51369;49.862;9.908;2023-04-03T07:57:37;99420.00;;;5.99;62.40
64876;BME280;51369;49.862;9.908;2023-04-03T08:00:04;99415.56;;;5.97;62.39
64876;BME280;51369;49.862;9.908;2023-04-03T08:02:37;99420.03;;;5.95;63.68
64876;BME280;51369;49.862;9.908;2023-04-03T08:05:02;99422.72;;;5.93;63.93
64876;BME280;51369;49.862;9.908;2023-04-03T08:07:28;99429.00;;;5.87;62.61
64876;BME280;51369;49.862;9.908;2023-04-03T08:09:53;99424.53;;;5.86;63.57
64876;BME280;51369;49.862;9.908;2023-04-03T08:12:19;99433.47;;;5.85;63.77
64876;BME280;51369;49.862;9.908;2023-04-03T08:14:45;99434.34;;;5.86;63.59
64876;BME280;51369;49.862;9.908;2023-04-03T08:17:10;99436.16;;;5.85;63.31
64876;BME280;51369;49.862;9.908;2023-04-03T08:19:39;99432.59;;;5.82;63.10
64876;BME280;51369;49.862;9.908;2023-04-03T08:22:05;99441.56;;;5.79;63.65
64876;BME280;51369;49.862;9.908;2023-04-03T08:24:34;99440.69;;;5.76;62.60
64876;BME280;51369;49.862;9.908;2023-04-03T08:27:00;99439.75;;;5.80;63.33
64876;BME280;51369;49.862;9.908;2023-04-03T08:29:26;99433.47;;;5.87;63.13
64876;BME280;51369;49.862;9.908;2023-04-03T08:31:51;99434.34;;;5.92;63.18
64876;BME280;51369;49.862;9.908;2023-04-03T08:34:17;99440.53;;;6.02;63.28
64876;BME280;51369;49.862;9.908;2023-04-03T08:36:43;99440.47;;;6.09;63.21
64876;BME280;51369;49.862;9.908;2023-04-03T08:39:09;99445.75;;;6.20;63.12
64876;BME280;51369;49.862;9.908;2023-04-03T08:41:43;99446.59;;;6.28;63.52
64876;BME280;51369;49.862;9.908;2023-04-03T08:49:43;99452.66;;;6.48;62.00
64876;BME280;51369;49.862;9.908;2023-04-03T08:52:16;99447.25;;;6.53;61.42
64876;BME280;51369;49.862;9.908;2023-04-03T08:54:54;99452.56;;;6.58;61.65
64876;BME280;51369;49.862;9.908;2023-04-03T08:57:34;99455.25;;;6.59;60.81
64876;BME280;51369;49.862;9.908;2023-04-03T09:00:23;99442.69;;;6.61;61.94
64876;BME280;51369;49.862;9.908;2023-04-03T09:02:54;99454.31;;;6.63;62.48
64876;BME280;51369;49.862;9.908;2023-04-03T09:05:35;99453.44;;;6.63;60.89
64876;BME280;51369;49.862;9.908;2023-04-03T09:10:39;99465.88;;;6.70;61.56
64876;BME280;51369;49.862;9.908;2023-04-03T09:13:34;99457.84;;;6.67;61.06
64876;BME280;51369;49.862;9.908;2023-04-03T09:16:16;99447.06;;;6.73;60.81
64876;BME280;51369;49.862;9.908;2023-04-03T09:18:50;99463.03;;;6.87;61.26
64876;BME280;51369;49.862;9.908;2023-04-03T09:21:20;99460.16;;;6.99;61.52
64876;BME280;51369;49.862;9.908;2023-04-03T09:23:52;99468.97;;;7.11;62.26
64876;BME280;51369;49.862;9.908;2023-04-03T09:26:28;99474.25;;;7.21;61.20
64876;BME280;51369;49.862;9.908;2023-04-03T09:28:59;99467.84;;;7.31;60.72
64876;BME280;51369;49.862;9.908;2023-04-03T09:31:27;99453.38;;;7.44;60.39
64876;BME280;51369;49.862;9.908;2023-04-03T09:33:58;99458.53;;;7.59;59.23
64876;BME280;51369;49.862;9.908;2023-04-03T09:39:19;99459.09;;;7.84;59.56
64876;BME280;51369;49.862;9.908;2023-04-03T09:44:37;99454.50;;;7.91;58.29
64876;BME280;51369;49.862;9.908;2023-04-03T09:47:25;99458.94;;;7.95;58.98
64876;BME280;51369;49.862;9.908;2023-04-03T09:49:52;99463.41;;;7.96;56.68
64876;BME280;51369;49.862;9.908;2023-04-03T09:52:34;99460.75;;;7.93;55.92
64876;BME280;51369;49.862;9.908;2023-04-03T09:55:16;99465.31;;;7.88;56.05
64876;BME280;51369;49.862;9.908;2023-04-03T09:57:45;99470.84;;;7.77;55.37
64876;BME280;51369;49.862;9.908;2023-04-03T10:00:33;99463.69;;;7.74;54.92
64876;BME280;51369;49.862;9.908;2023-04-03T10:02:59;99463.56;;;7.83;56.06
64876;BME280;51369;49.862;9.908;2023-04-03T10:05:33;99460.78;;;7.91;54.77
64876;BME280;51369;49.862;9.908;2023-04-03T10:10:43;99442.47;;;8.16;53.59
64876;BME280;51369;49.862;9.908;2023-04-03T10:13:17;99449.41;;;8.31;54.47
64876;BME280;51369;49.862;9.908;2023-04-03T10:16:01;99445.59;;;8.45;54.27
64876;BME280;51369;49.862;9.908;2023-04-03T10:29:33;99447.28;;;8.99;53.74
64876;BME280;51369;49.862;9.908;2023-04-03T10:32:06;99451.50;;;9.12;53.01
64876;BME280;51369;49.862;9.908;2023-04-03T10:34:42;99445.16;;;9.16;53.34
64876;BME280;51369;49.862;9.908;2023-04-03T10:37:27;99437.09;;;9.14;54.33
64876;BME280;51369;49.862;9.908;2023-04-03T10:40:23;99448.75;;;9.15;56.42
64876;BME280;51369;49.862;9.908;2023-04-03T10:43:26;99436.25;;;9.11;52.40
64876;BME280;51369;49.862;9.908;2023-04-03T10:48:30;99441.59;;;9.14;51.63
64876;BME280;51369;49.862;9.908;2023-04-03T10:53:55;99436.78;;;9.30;54.19
64876;BME280;51369;49.862;9.908;2023-04-03T10:59:15;99432.00;;;9.44;51.60
64876;BME280;51369;49.862;9.908;2023-04-03T11:01:46;99443.44;;;9.55;54.51
64876;BME280;51369;49.862;9.908;2023-04-03T11:04:16;99433.50;;;9.57;49.21
64876;BME280;51369;49.862;9.908;2023-04-03T11:06:50;99426.72;;;9.79;50.43
64876;BME280;51369;49.862;9.908;2023-04-03T11:11:44;99430.22;;;9.83;50.60
64876;BME280;51369;49.862;9.908;2023-04-03T11:14:15;99427.88;;;9.68;49.75
64876;BME280;51369;49.862;9.908;2023-04-03T11:16:46;99429.88;;;9.58;50.81
64876;BME280;51369;49.862;9.908;2023-04-03T11:19:20;99428.00;;;9.62;52.20
64876;BME280;51369;49.862;9.908;2023-04-03T11:22:14;99416.34;;;9.61;51.89
64876;BME280;51369;49.862;9.908;2023-04-03T11:24:42;99418.38;;;9.50;50.24
64876;BME280;51369;49.862;9.908;2023-04-03T11:27:17;99409.84;;;9.30;51.39
64876;BME280;51369;49.862;9.908;2023-04-03T11:29:49;99404.66;;;9.19;49.88
64876;BME280;51369;49.862;9.908;2023-04-03T11:35:02;99403.88;;;9.14;50.30
64876;BME280;51369;49.862;9.908;2023-04-03T11:37:44;99399.38;;;9.14;53.71
64876;BME280;51369;49.862;9.908;2023-04-03T11:40:33;99410.16;;;9.14;50.84
64876;BME280;51369;49.862;9.908;2023-04-03T11:43:20;99393.72;;;9.27;51.92
64876;BME280;51369;49.862;9.908;2023-04-03T11:45:52;99402.28;;;9.47;53.29
64876;BME280;51369;49.862;9.908;2023-04-03T11:50:59;99390.78;;;9.77;49.98
64876;BME280;51369;49.862;9.908;2023-04-03T11:53:36;99392.72;;;10.09;51.14
64876;BME280;51369;49.862;9.908;2023-04-03T12:01:47;99384.22;;;10.60;49.89
64876;BME280;51369;49.862;9.908;2023-04-03T12:04:14;99387.03;;;10.56;49.63
64876;BME280;51369;49.862;9.908;2023-04-03T12:09:26;99378.09;;;10.54;49.65
64876;BME280;51369;49.862;9.908;2023-04-03T12:11:53;99387.59;;;10.68;52.50
64876;BME280;51369;49.862;9.908;2023-04-03T12:14:22;99380.34;;;10.70;49.08
64876;BME280;51369;49.862;9.908;2023-04-03T12:16:49;99378.34;;;10.77;47.83
64876;BME280;51369;49.862;9.908;2023-04-03T12:19:36;99373.53;;;10.56;45.27
64876;BME280;51369;49.862;9.908;2023-04-03T12:24:30;99373.50;;;10.57;48.94
64876;BME280;51369;49.862;9.908;2023-04-03T12:29:28;99363.59;;;10.58;50.82
64876;BME280;51369;49.862;9.908;2023-04-03T12:40:09;99357.25;;;10.59;48.70
64876;BME280;51369;49.862;9.908;2023-04-03T12:43:02;99352.56;;;10.65;49.42
64876;BME280;51369;49.862;9.908;2023-04-03T12:48:46;99350.41;;;10.78;49.15
64876;BME280;51369;49.862;9.908;2023-04-03T12:51:14;99343.78;;;10.90;49.20
64876;BME280;51369;49.862;9.908;2023-04-03T12:53:42;99354.41;;;10.96;47.01
64876;BME280;51369;49.862;9.908;2023-04-03T12:56:25;99353.06;;;10.80;44.46
64876;BME280;51369;49.862;9.908;2023-04-03T12:58:53;99346.69;;;10.82;46.48
64876;BME280;51369;49.862;9.908;2023-04-03T13:01:21;99355.56;;;10.87;47.82
64876;BME280;51369;49.862;9.908;2023-04-03T13:03:57;99351.00;;;10.89;47.01
64876;BME280;51369;49.862;9.908;2023-04-03T13:06:29;99348.31;;;10.89;45.27
64876;BME280;51369;49.862;9.908;2023-04-03T13:09:00;99343.56;;;10.97;45.12
64876;BME280;51369;49.862;9.908;2023-04-03T13:11:30;99345.16;;;11.04;44.33
64876;BME280;51369;49.862;9.908;2023-04-03T13:14:05;99338.81;;;11.05;46.09
64876;BME280;51369;49.862;9.908;2023-04-03T13:16:32;99339.84;;;11.01;48.06
64876;BME280;51369;49.862;9.908;2023-04-03T13:18:58;99333.72;;;10.95;47.11
64876;BME280;51369;49.862;9.908;2023-04-03T13:21:30;99336.47;;;10.93;47.41
64876;BME280;51369;49.862;9.908;2023-04-03T13:24:00;99340.06;;;10.94;46.93
64876;BME280;51369;49.862;9.908;2023-04-03T13:26:31;99336.34;;;10.98;46.39
64876;BME280;51369;49.862;9.908;2023-04-03T13:29:02;99332.41;;;11.09;47.37
64876;BME280;51369;49.862;9.908;2023-04-03T13:31:30;99317.81;;;11.15;49.50
64876;BME280;51369;49.862;9.908;2023-04-03T13:34:07;99333.31;;;11.08;47.61
64876;BME280;51369;49.862;9.908;2023-04-03T13:37:00;99326.31;;;11.01;45.41
64876;BME280;51369;49.862;9.908;2023-04-03T13:39:29;99316.28;;;11.06;44.38
64876;BME280;51369;49.862;9.908;2023-04-03T13:41:57;99320.47;;;11.17;43.49
64876;BME280;51369;49.862;9.908;2023-04-03T13:46:53;99331.75;;;11.31;45.32
64876;BME280;51369;49.862;9.908;2023-04-03T13:49:32;99321.88;;;11.30;43.74
64876;BME280;51369;49.862;9.908;2023-04-03T13:51:58;99327.19;;;11.33;45.80
64876;BME280;51369;49.862;9.908;2023-04-03T13:54:33;99324.63;;;11.28;47.54
64876;BME280;51369;49.862;9.908;2023-04-03T13:57:00;99315.00;;;11.18;48.10
64876;BME280;51369;49.862;9.908;2023-04-03T13:59:35;99311.94;;;11.01;44.91
64876;BME280;51369;49.862;9.908;2023-04-03T14:04:29;99314.41;;;11.08;45.72
64876;BME280;51369;49.862;9.908;2023-04-03T14:06:56;99312.97;;;11.26;47.73
64876;BME280;51369;49.862;9.908;2023-04-03T14:09:23;99310.16;;;11.29;49.28
64876;BME280;51369;49.862;9.908;2023-04-03T14:11:53;99309.28;;;11.29;43.43
64876;BME280;51369;49.862;9.908;2023-04-03T14:14:21;99306.81;;;11.21;45.96
64876;BME280;51369;49.862;9.908;2023-04-03T14:16:52;99314.50;;;11.05;48.85
64876;BME280;51369;49.862;9.908;2023-04-03T14:19:24;99315.06;;;10.86;47.98
64876;BME280;51369;49.862;9.908;2023-04-03T14:21:50;99308.88;;;10.82;46.35
64876;BME280;51369;49.862;9.908;2023-04-03T14:24:16;99311.41;;;10.88;46.98
64876;BME280;51369;49.862;9.908;2023-04-03T14:26:43;99292.22;;;10.97;46.07
64876;BME280;51369;49.862;9.908;2023-04-03T14:29:10;99289.00;;;11.14;46.35
64876;BME280;51369;49.862;9.908;2023-04-03T14:31:36;99299.31;;;11.31;48.16
64876;BME280;51369;49.862;9.908;2023-04-03T14:34:01;99301.78;;;11.38;47.58
64876;BME280;51369;49.862;9.908;2023-04-03T14:36:28;99298.19;;;11.38;45.75
64876;BME280;51369;49.862;9.908;2023-04-03T14:38:54;99298.66;;;11.23;45.84
64876;BME280;51369;49.862;9.908;2023-04-03T14:41:23;99281.88;;;11.12;46.67